Terminal Aerodrome Forecast
Issued by NWS Charleston, WV

Home | Current Version | Previous Version | Text Only | Print | Product List | Glossary On
Versions: 1 2 3 4 5 6 7 8 9 10 11 12 13 14 15 16 17 18 19 20 21 22 23
052
FTUS41 KRLX 200536
TAFHTS
TAF
KHTS 200536Z 2006/2106 00000KT 1SM BR VV002
     FM200800 00000KT 1/4SM FG VV001
     FM201300 00000KT 1SM BR BKN001
     FM201400 VRB02KT 4SM BR SCT001
     FM201500 VRB02KT P6SM FEW250=

USA.gov is the U.S. government's official web portal to all federal, state and local government web resources and services.